createdAt,value
2022-10-08T00:00:53.292Z,60.71
2022-10-08T00:03:21.527Z,60.39
2022-10-08T00:05:59.679Z,60.01
2022-10-08T00:08:27.923Z,60.43
2022-10-08T00:11:00.625Z,60.78
2022-10-08T00:13:29.175Z,60.72
2022-10-08T00:15:56.900Z,61.22
2022-10-08T00:18:23.489Z,62.21
2022-10-08T00:20:50.172Z,62.02
2022-10-08T00:23:17.045Z,61.56
2022-10-08T00:25:44.825Z,61.99
2022-10-08T00:28:13.585Z,61.92
2022-10-08T00:30:41.485Z,61.93
2022-10-08T00:33:08.845Z,61.86
2022-10-08T00:35:43.017Z,61.52
2022-10-08T00:38:09.944Z,61.53
2022-10-08T00:40:44.357Z,62.52
2022-10-08T00:43:16.367Z,62.18
2022-10-08T00:45:46.492Z,62.14
2022-10-08T00:48:20.935Z,62.08
2022-10-08T00:50:48.051Z,62.27
2022-10-08T00:53:14.904Z,61.91
2022-10-08T00:55:43.925Z,61.66
2022-10-08T00:58:19.486Z,61.81
2022-10-08T01:00:48.206Z,61.59
2022-10-08T01:03:15.219Z,62.10
2022-10-08T01:06:16.863Z,61.77
2022-10-08T01:08:54.594Z,62.12
2022-10-08T01:11:47.565Z,61.75
2022-10-08T01:14:23.098Z,62.27
2022-10-08T01:17:08.265Z,62.57
2022-10-08T01:20:04.808Z,62.68
2022-10-08T01:22:51.783Z,62.53
2022-10-08T01:25:34.061Z,62.89
2022-10-08T01:28:12.935Z,62.86
2022-10-08T01:30:45.415Z,62.78
2022-10-08T01:33:17.889Z,62.96
2022-10-08T01:35:50.761Z,63.29
2022-10-08T01:38:20.658Z,63.26
2022-10-08T01:40:48.314Z,63.11
2022-10-08T01:43:19.020Z,63.13
2022-10-08T01:45:52.041Z,63.09
2022-10-08T01:48:25.681Z,63.30
2022-10-08T01:50:55.334Z,63.22
2022-10-08T01:53:25.828Z,62.94
2022-10-08T01:55:54.887Z,62.80
2022-10-08T01:58:48.370Z,62.87
2022-10-08T02:01:27.730Z,63.04
2022-10-08T02:04:13.239Z,63.29
2022-10-08T02:06:45.352Z,63.92
2022-10-08T02:09:11.916Z,63.77
2022-10-08T02:11:38.467Z,64.25
2022-10-08T02:14:06.128Z,63.94
2022-10-08T02:16:34.366Z,64.12
2022-10-08T02:19:11.747Z,63.77
2022-10-08T02:21:41.062Z,63.85
2022-10-08T02:24:16.928Z,63.55
2022-10-08T02:26:49.303Z,64.13
2022-10-08T02:29:25.757Z,64.02
2022-10-08T02:31:58.172Z,64.19
2022-10-08T02:34:48.061Z,63.96
2022-10-08T02:37:21.836Z,64.13
2022-10-08T02:39:56.832Z,64.02
2022-10-08T02:42:25.639Z,64.18
2022-10-08T02:44:58.820Z,64.88
2022-10-08T02:47:29.192Z,65.08
2022-10-08T02:50:03.658Z,65.15
2022-10-08T02:52:36.951Z,64.94
2022-10-08T02:55:11.279Z,64.98
2022-10-08T02:57:45.800Z,65.33
2022-10-08T03:00:13.053Z,65.13
2022-10-08T03:02:47.242Z,64.77
2022-10-08T03:05:19.000Z,64.45
2022-10-08T03:07:47.804Z,64.46
2022-10-08T03:10:14.455Z,64.34
2022-10-08T03:12:41.149Z,63.98
2022-10-08T03:15:11.325Z,64.08
2022-10-08T03:17:42.028Z,63.63
2022-10-08T03:20:11.412Z,63.57
2022-10-08T03:22:38.688Z,63.17
2022-10-08T03:25:05.693Z,63.04
2022-10-08T03:27:32.336Z,62.89
2022-10-08T03:29:58.845Z,63.13
2022-10-08T03:32:26.506Z,62.85
2022-10-08T03:34:53.894Z,63.22
2022-10-08T03:37:20.859Z,63.30
2022-10-08T03:39:47.445Z,63.48
2022-10-08T03:42:14.080Z,63.75
2022-10-08T03:44:40.806Z,63.87
2022-10-08T03:47:07.401Z,64.26
2022-10-08T03:49:34.027Z,64.19
2022-10-08T03:52:00.747Z,64.11
2022-10-08T03:54:27.357Z,64.11
2022-10-08T03:56:54.077Z,64.40
2022-10-08T03:59:20.669Z,64.12
2022-10-08T04:01:47.288Z,64.40
2022-10-08T04:04:13.904Z,64.18
2022-10-08T04:06:40.476Z,64.32
2022-10-08T04:09:07.060Z,64.26
2022-10-08T04:11:33.610Z,64.21
2022-10-08T04:14:00.641Z,64.42
2022-10-08T04:16:27.299Z,64.20
2022-10-08T04:18:53.863Z,64.61
2022-10-08T04:21:20.857Z,64.82
2022-10-08T04:23:49.654Z,65.09
2022-10-08T04:26:16.795Z,65.51
2022-10-08T04:28:44.855Z,65.46
2022-10-08T04:31:17.356Z,65.14
2022-10-08T04:33:45.280Z,64.78
2022-10-08T04:36:14.620Z,64.50
2022-10-08T04:38:43.253Z,63.82
2022-10-08T04:41:11.448Z,64.02
2022-10-08T04:43:39.549Z,63.80
2022-10-08T04:46:08.880Z,63.35
2022-10-08T04:48:35.649Z,63.89
2022-10-08T04:51:09.387Z,63.73
2022-10-08T04:53:37.542Z,63.78
2022-10-08T04:56:17.091Z,63.28
2022-10-08T04:58:43.995Z,63.55
2022-10-08T05:01:13.173Z,63.63
2022-10-08T05:03:42.653Z,63.66
2022-10-08T05:06:09.953Z,63.44
2022-10-08T05:08:37.301Z,63.41
2022-10-08T05:11:04.427Z,63.42
2022-10-08T05:13:31.013Z,63.45
2022-10-08T05:16:09.898Z,63.22
2022-10-08T05:18:37.576Z,63.27
2022-10-08T05:21:10.084Z,63.51
2022-10-08T05:23:37.382Z,63.20
2022-10-08T05:26:46.480Z,62.63
2022-10-08T05:29:14.810Z,62.38
2022-10-08T05:31:41.369Z,63.05
2022-10-08T05:34:08.005Z,62.69
2022-10-08T05:36:35.136Z,63.02
2022-10-08T05:39:04.662Z,62.70
2022-10-08T05:41:34.535Z,62.67
2022-10-08T05:44:04.447Z,62.82
2022-10-08T05:46:33.701Z,62.22
2022-10-08T05:49:03.050Z,62.24
2022-10-08T05:51:30.206Z,62.12
2022-10-08T05:53:59.306Z,62.19
2022-10-08T05:56:27.344Z,62.18
2022-10-08T05:58:54.776Z,61.66
2022-10-08T06:01:24.366Z,61.29
2022-10-08T06:03:55.382Z,60.86
2022-10-08T06:06:23.053Z,60.81
2022-10-08T06:08:58.671Z,60.02
2022-10-08T06:11:26.282Z,60.36
2022-10-08T06:13:54.318Z,60.60
2022-10-08T06:16:22.112Z,60.04
2022-10-08T06:18:48.807Z,60.12
2022-10-08T06:21:21.689Z,59.65
2022-10-08T06:23:50.993Z,59.08
2022-10-08T06:26:18.896Z,58.91
2022-10-08T06:28:46.065Z,59.56
2022-10-08T06:31:12.980Z,59.00
2022-10-08T06:33:39.829Z,59.30
2022-10-08T06:36:21.153Z,59.47
2022-10-08T06:38:57.313Z,59.10
2022-10-08T06:41:24.802Z,59.02
2022-10-08T06:43:51.421Z,58.80
2022-10-08T06:46:18.874Z,58.80
2022-10-08T06:48:46.442Z,58.84
2022-10-08T06:51:16.025Z,58.78
2022-10-08T06:53:43.488Z,58.57
2022-10-08T06:56:14.433Z,58.08
2022-10-08T06:58:43.686Z,58.64
2022-10-08T07:01:21.867Z,58.04
2022-10-08T07:03:53.311Z,57.47
2022-10-08T07:06:20.201Z,57.01
2022-10-08T07:08:46.932Z,56.87
2022-10-08T07:11:16.367Z,56.40
2022-10-08T07:13:43.558Z,55.83
2022-10-08T07:16:20.735Z,56.18
2022-10-08T07:18:52.117Z,55.93
2022-10-08T07:21:21.040Z,55.74
2022-10-08T07:23:47.822Z,55.51
2022-10-08T07:26:20.203Z,55.12
2022-10-08T07:28:55.711Z,55.00
2022-10-08T07:31:28.230Z,54.57
2022-10-08T07:33:56.206Z,54.47
2022-10-08T07:36:24.223Z,53.97
2022-10-08T07:38:55.532Z,53.66
2022-10-08T07:41:22.628Z,53.90
2022-10-08T07:43:53.680Z,53.89
2022-10-08T07:46:20.932Z,53.74
2022-10-08T07:48:47.885Z,53.90
2022-10-08T07:51:19.487Z,53.83
2022-10-08T07:53:46.347Z,53.15
2022-10-08T07:56:14.985Z,53.13
2022-10-08T07:58:42.299Z,52.82
2022-10-08T08:01:12.779Z,52.33
2022-10-08T08:03:39.537Z,51.78
2022-10-08T08:06:10.473Z,51.52
2022-10-08T08:08:38.492Z,50.74
2022-10-08T08:11:06.805Z,50.28
2022-10-08T08:13:37.309Z,49.17
2022-10-08T08:16:07.833Z,47.79
2022-10-08T08:18:40.034Z,47.38
2022-10-08T08:21:09.785Z,46.29
2022-10-08T08:23:38.953Z,46.27
2022-10-08T08:26:33.044Z,45.99
2022-10-08T08:29:03.858Z,46.25
2022-10-08T08:31:32.675Z,46.68
2022-10-08T08:34:02.319Z,46.63
2022-10-08T08:36:37.280Z,46.78
2022-10-08T08:39:04.982Z,46.71
2022-10-08T08:41:47.482Z,46.96
2022-10-08T08:44:16.885Z,47.58
2022-10-08T08:47:02.215Z,47.70
2022-10-08T08:49:35.040Z,47.68
2022-10-08T08:52:05.228Z,47.64
2022-10-08T08:54:38.064Z,47.69
2022-10-08T08:57:36.308Z,47.88
2022-10-08T09:00:28.124Z,48.05
2022-10-08T09:03:05.298Z,48.13
2022-10-08T09:05:39.450Z,48.12
2022-10-08T09:08:33.800Z,48.10
2022-10-08T09:11:02.996Z,47.89
2022-10-08T09:13:47.524Z,48.06
2022-10-08T09:16:15.229Z,47.61
2022-10-08T09:18:51.967Z,47.50
2022-10-08T09:21:19.747Z,47.76
2022-10-08T09:23:47.609Z,47.20
2022-10-08T09:26:17.127Z,46.94
2022-10-08T09:28:44.665Z,46.20
2022-10-08T09:31:22.525Z,44.35
2022-10-08T09:34:10.722Z,42.40
2022-10-08T09:36:44.185Z,40.13
2022-10-08T09:39:27.196Z,38.78
2022-10-08T09:42:15.364Z,39.08
2022-10-08T09:44:45.035Z,38.44
2022-10-08T09:47:14.695Z,36.68
2022-10-08T09:49:41.315Z,35.66
2022-10-08T09:52:17.533Z,32.80
2022-10-08T09:54:48.994Z,31.07
2022-10-08T09:57:21.429Z,29.47
2022-10-08T09:59:52.951Z,29.06
2022-10-08T10:02:26.646Z,26.89
2022-10-08T10:04:55.112Z,28.49
2022-10-08T10:07:23.302Z,29.69
2022-10-08T10:09:55.980Z,28.58
2022-10-08T10:12:33.118Z,25.66
2022-10-08T10:15:04.617Z,24.26
2022-10-08T10:17:44.693Z,24.84
2022-10-08T10:20:17.993Z,26.06
2022-10-08T10:22:55.014Z,27.67
2022-10-08T10:25:47.884Z,29.46
2022-10-08T10:28:34.677Z,30.86
2022-10-08T10:31:10.701Z,32.18
2022-10-08T10:34:13.170Z,33.39
2022-10-08T10:36:45.689Z,34.54
2022-10-08T10:39:49.564Z,35.70
2022-10-08T10:42:43.743Z,37.07
2022-10-08T10:45:22.942Z,37.92
2022-10-08T10:47:53.390Z,38.86
2022-10-08T10:50:37.278Z,39.62
2022-10-08T10:53:25.163Z,39.88
2022-10-08T10:56:12.723Z,40.74
2022-10-08T10:58:52.873Z,39.46
2022-10-08T11:01:45.349Z,38.87
2022-10-08T11:04:41.101Z,38.69
2022-10-08T11:07:38.988Z,38.86
2022-10-08T11:10:43.157Z,39.76
2022-10-08T11:13:36.523Z,39.50
2022-10-08T11:16:25.102Z,38.44
2022-10-08T11:18:54.872Z,39.01
2022-10-08T11:22:12.594Z,40.62
2022-10-08T11:24:47.829Z,40.76
2022-10-08T11:27:47.885Z,41.45
2022-10-08T11:30:22.845Z,42.19
2022-10-08T11:32:53.047Z,42.58
2022-10-08T11:35:27.149Z,43.09
2022-10-08T11:37:58.459Z,42.95
2022-10-08T11:40:28.084Z,43.41
2022-10-08T11:43:10.711Z,43.57
2022-10-08T11:45:40.159Z,43.56
2022-10-08T11:48:35.039Z,44.11
2022-10-08T11:51:20.033Z,43.79
2022-10-08T11:54:03.097Z,44.12
2022-10-08T11:56:30.880Z,44.26
2022-10-08T11:59:02.368Z,44.21
2022-10-08T12:01:28.980Z,44.47
2022-10-08T12:04:05.043Z,44.15
2022-10-08T12:06:36.783Z,44.56
2022-10-08T12:09:06.140Z,44.28
2022-10-08T12:11:32.639Z,44.32
2022-10-08T12:14:19.126Z,43.45
2022-10-08T12:16:49.168Z,43.56
2022-10-08T12:19:34.163Z,43.53
2022-10-08T12:22:18.582Z,43.66
2022-10-08T12:24:50.017Z,44.23
2022-10-08T12:27:17.273Z,45.67
2022-10-08T12:30:08.251Z,47.05
2022-10-08T12:32:43.901Z,47.74
2022-10-08T12:35:30.124Z,47.78
2022-10-08T12:38:05.632Z,47.89
2022-10-08T12:40:35.245Z,46.79
2022-10-08T12:43:34.791Z,45.42
2022-10-08T12:46:32.309Z,45.40
2022-10-08T12:49:22.185Z,44.43
2022-10-08T12:52:11.759Z,43.48
2022-10-08T12:54:45.505Z,42.93
2022-10-08T12:57:17.632Z,42.78
2022-10-08T12:59:46.457Z,42.53
2022-10-08T13:02:40.523Z,42.12
2022-10-08T13:05:27.448Z,42.49
2022-10-08T13:07:54.380Z,42.48
2022-10-08T13:10:28.256Z,42.59
2022-10-08T13:13:05.872Z,43.28
2022-10-08T13:15:34.472Z,43.84
2022-10-08T13:18:13.541Z,44.21
2022-10-08T13:20:55.579Z,44.01
2022-10-08T13:23:45.579Z,43.35
2022-10-08T13:26:42.168Z,41.87
2022-10-08T13:29:23.750Z,41.66
2022-10-08T13:31:59.550Z,41.37
2022-10-08T13:34:37.740Z,40.27
2022-10-08T13:37:25.794Z,39.65
2022-10-08T13:40:10.715Z,39.29
2022-10-08T13:42:49.481Z,39.65
2022-10-08T13:45:19.547Z,39.12
2022-10-08T13:47:46.639Z,39.43
2022-10-08T13:50:13.843Z,40.06
2022-10-08T13:52:53.589Z,40.88
2022-10-08T13:55:23.350Z,41.04
2022-10-08T13:57:50.403Z,41.17
2022-10-08T14:00:17.859Z,40.48
2022-10-08T14:02:44.524Z,39.84
2022-10-08T14:05:11.723Z,39.39
2022-10-08T14:07:39.004Z,39.79
2022-10-08T14:10:06.488Z,39.40
2022-10-08T14:12:35.036Z,39.85
2022-10-08T14:15:04.896Z,40.11
2022-10-08T14:17:32.624Z,39.83
2022-10-08T14:19:59.262Z,40.15
2022-10-08T14:22:25.850Z,40.61
2022-10-08T14:24:52.692Z,41.20
2022-10-08T14:27:19.330Z,41.91
2022-10-08T14:29:46.093Z,42.33
2022-10-08T14:32:12.811Z,42.49
2022-10-08T14:34:39.473Z,42.49
2022-10-08T14:37:06.756Z,42.82
2022-10-08T14:39:33.614Z,43.05
2022-10-08T14:42:00.298Z,42.90
2022-10-08T14:44:26.920Z,42.48
2022-10-08T14:46:53.509Z,42.20
2022-10-08T14:49:21.183Z,41.81
2022-10-08T14:51:48.279Z,41.89
2022-10-08T14:54:14.949Z,41.09
2022-10-08T14:56:42.734Z,40.91
2022-10-08T14:59:12.762Z,40.26
2022-10-08T15:01:39.869Z,40.51
2022-10-08T15:04:07.539Z,40.42
2022-10-08T15:06:34.296Z,40.27
2022-10-08T15:09:00.896Z,40.27
2022-10-08T15:11:27.575Z,40.41
2022-10-08T15:13:55.621Z,40.80
2022-10-08T15:16:22.804Z,40.89
2022-10-08T15:18:49.413Z,40.29
2022-10-08T15:21:16.175Z,40.43
2022-10-08T15:23:42.943Z,40.82
2022-10-08T15:26:14.840Z,40.44
2022-10-08T15:28:43.004Z,40.01
2022-10-08T15:31:20.539Z,40.48
2022-10-08T15:33:49.930Z,40.35
2022-10-08T15:36:24.002Z,39.78
2022-10-08T15:38:59.405Z,39.88
2022-10-08T15:41:27.624Z,39.84
2022-10-08T15:43:54.837Z,39.47
2022-10-08T15:46:22.777Z,39.41
2022-10-08T15:48:54.342Z,39.45
2022-10-08T15:51:22.369Z,39.66
2022-10-08T15:53:49.173Z,40.01
2022-10-08T15:56:16.152Z,40.27
2022-10-08T15:58:50.945Z,40.51
2022-10-08T16:01:21.425Z,40.17
2022-10-08T16:03:50.031Z,40.25
2022-10-08T16:06:19.060Z,39.88
2022-10-08T16:08:46.101Z,39.36
2022-10-08T16:11:42.158Z,39.67
2022-10-08T16:14:12.452Z,39.95
2022-10-08T16:16:39.979Z,40.03
2022-10-08T16:19:09.180Z,40.20
2022-10-08T16:21:36.331Z,40.08
2022-10-08T16:24:03.216Z,40.27
2022-10-08T16:26:31.813Z,40.66
2022-10-08T16:29:00.681Z,40.35
2022-10-08T16:31:30.660Z,40.56
2022-10-08T16:33:59.798Z,41.02
2022-10-08T16:36:28.020Z,40.78
2022-10-08T16:38:55.206Z,41.01
2022-10-08T16:41:30.763Z,41.23
2022-10-08T16:43:59.683Z,41.15
2022-10-08T16:46:30.056Z,41.33
2022-10-08T16:49:12.346Z,41.53
2022-10-08T16:51:39.476Z,41.76
2022-10-08T16:54:08.333Z,41.97
2022-10-08T16:56:37.868Z,42.01
2022-10-08T16:59:05.624Z,41.89
2022-10-08T17:01:33.875Z,42.22
2022-10-08T17:04:00.576Z,42.37
2022-10-08T17:06:28.983Z,42.32
2022-10-08T17:08:55.988Z,42.59
2022-10-08T17:11:22.772Z,42.53
2022-10-08T17:13:55.681Z,42.51
2022-10-08T17:16:24.010Z,43.00
2022-10-08T17:18:52.512Z,43.43
2022-10-08T17:21:19.652Z,43.56
2022-10-08T17:23:46.496Z,43.82
2022-10-08T17:26:16.223Z,43.81
2022-10-08T17:28:44.185Z,44.26
2022-10-08T17:31:17.025Z,44.52
2022-10-08T17:33:43.814Z,44.31
2022-10-08T17:36:15.642Z,44.23
2022-10-08T17:38:44.540Z,44.37
2022-10-08T17:41:16.539Z,44.55
2022-10-08T17:43:44.166Z,44.41
2022-10-08T17:46:19.093Z,44.31
2022-10-08T17:48:46.535Z,45.05
2022-10-08T17:51:15.976Z,45.02
2022-10-08T17:53:43.239Z,44.81
2022-10-08T17:56:12.875Z,44.70
2022-10-08T17:58:39.664Z,45.44
2022-10-08T18:01:13.522Z,45.56
2022-10-08T18:03:41.876Z,45.99
2022-10-08T18:06:09.657Z,45.68
2022-10-08T18:08:37.354Z,46.02
2022-10-08T18:11:06.528Z,46.06
2022-10-08T18:13:34.366Z,46.07
2022-10-08T18:16:08.375Z,46.67
2022-10-08T18:18:35.479Z,46.48
2022-10-08T18:21:03.359Z,46.79
2022-10-08T18:23:31.749Z,47.20
2022-10-08T18:26:17.673Z,47.20
2022-10-08T18:28:45.743Z,47.10
2022-10-08T18:31:14.267Z,47.06
2022-10-08T18:33:43.422Z,47.31
2022-10-08T18:36:22.992Z,47.42
2022-10-08T18:38:57.782Z,47.09
2022-10-08T18:41:27.382Z,47.78
2022-10-08T18:43:54.458Z,47.79
2022-10-08T18:46:22.757Z,47.43
2022-10-08T18:48:49.633Z,47.84
2022-10-08T18:51:22.362Z,48.04
2022-10-08T18:53:50.393Z,47.94
2022-10-08T18:56:25.317Z,48.24
2022-10-08T18:58:57.587Z,48.63
2022-10-08T19:01:30.342Z,48.83
2022-10-08T19:03:59.075Z,48.99
2022-10-08T19:06:29.941Z,49.05
2022-10-08T19:08:58.460Z,48.78
2022-10-08T19:11:33.067Z,49.45
2022-10-08T19:14:01.130Z,48.96
2022-10-08T19:16:28.509Z,49.67
2022-10-08T19:18:58.045Z,50.23
2022-10-08T19:21:26.245Z,50.02
2022-10-08T19:23:53.241Z,50.27
2022-10-08T19:26:20.454Z,49.91
2022-10-08T19:28:49.404Z,50.43
2022-10-08T19:31:17.097Z,49.85
2022-10-08T19:33:51.480Z,50.91
2022-10-08T19:36:20.289Z,50.63
2022-10-08T19:38:55.073Z,50.54
2022-10-08T19:41:23.531Z,50.89
2022-10-08T19:43:52.120Z,50.73
2022-10-08T19:46:19.482Z,51.09
2022-10-08T19:48:51.579Z,51.01
2022-10-08T19:51:19.468Z,51.41
2022-10-08T19:53:46.241Z,51.73
2022-10-08T19:56:13.819Z,52.02
2022-10-08T19:58:46.252Z,52.25
2022-10-08T20:01:18.192Z,52.33
2022-10-08T20:03:45.262Z,52.61
2022-10-08T20:06:23.171Z,53.10
2022-10-08T20:08:53.570Z,53.15
2022-10-08T20:11:21.167Z,53.31
2022-10-08T20:13:53.842Z,53.20
2022-10-08T20:16:28.335Z,53.34
2022-10-08T20:19:00.966Z,53.50
2022-10-08T20:21:29.455Z,53.31
2022-10-08T20:23:56.081Z,53.86
2022-10-08T20:26:28.388Z,53.70
2022-10-08T20:29:05.021Z,53.58
2022-10-08T20:31:39.443Z,53.89
2022-10-08T20:34:18.411Z,54.27
2022-10-08T20:36:46.604Z,53.93
2022-10-08T20:39:15.198Z,54.36
2022-10-08T20:41:42.512Z,54.45
2022-10-08T20:44:09.118Z,55.11
2022-10-08T20:46:36.753Z,54.29
2022-10-08T20:49:04.032Z,54.32
2022-10-08T20:51:31.723Z,54.94
2022-10-08T20:54:04.460Z,54.74
2022-10-08T20:56:37.059Z,55.04
2022-10-08T20:59:04.485Z,55.15
2022-10-08T21:01:33.954Z,55.29
2022-10-08T21:04:00.735Z,55.31
2022-10-08T21:06:36.026Z,55.73
2022-10-08T21:09:02.791Z,55.36
2022-10-08T21:11:30.331Z,55.53
2022-10-08T21:13:59.382Z,55.48
2022-10-08T21:16:28.695Z,55.74
2022-10-08T21:18:57.698Z,55.87
2022-10-08T21:21:25.718Z,56.37
2022-10-08T21:23:52.983Z,55.91
2022-10-08T21:26:25.116Z,56.46
2022-10-08T21:28:54.982Z,56.44
2022-10-08T21:31:22.044Z,57.04
2022-10-08T21:33:50.773Z,56.11
2022-10-08T21:36:22.806Z,56.47
2022-10-08T21:38:49.463Z,56.45
2022-10-08T21:41:17.504Z,57.23
2022-10-08T21:43:52.653Z,56.72
2022-10-08T21:46:24.806Z,57.01
2022-10-08T21:48:56.519Z,56.97
2022-10-08T21:51:24.564Z,57.43
2022-10-08T21:53:57.341Z,57.51
2022-10-08T21:56:26.864Z,57.43
2022-10-08T21:58:55.410Z,57.67
2022-10-08T22:01:28.215Z,57.63
2022-10-08T22:04:02.763Z,57.72
2022-10-08T22:06:31.205Z,57.32
2022-10-08T22:08:58.361Z,57.76
2022-10-08T22:11:25.378Z,57.65
2022-10-08T22:13:52.516Z,57.89
2022-10-08T22:16:21.499Z,57.70
2022-10-08T22:18:48.803Z,58.15
2022-10-08T22:21:20.908Z,57.78
2022-10-08T22:23:48.779Z,57.47
2022-10-08T22:26:19.433Z,57.93
2022-10-08T22:28:46.460Z,57.74
2022-10-08T22:31:15.285Z,57.48
2022-10-08T22:33:41.897Z,57.52
2022-10-08T22:36:13.220Z,58.13
2022-10-08T22:38:41.336Z,58.09
2022-10-08T22:41:11.811Z,57.88
2022-10-08T22:43:39.761Z,58.16
2022-10-08T22:46:12.161Z,58.04
2022-10-08T22:48:39.784Z,57.97
2022-10-08T22:51:11.547Z,58.14
2022-10-08T22:53:38.847Z,57.99
2022-10-08T22:56:07.842Z,57.64
2022-10-08T22:58:35.418Z,58.25
2022-10-08T23:01:07.288Z,58.30
2022-10-08T23:03:34.501Z,58.21
2022-10-08T23:06:16.321Z,58.35
2022-10-08T23:08:44.424Z,58.12
2022-10-08T23:11:11.566Z,58.74
2022-10-08T23:13:38.480Z,58.47
2022-10-08T23:16:10.519Z,58.45
2022-10-08T23:18:39.661Z,58.66
2022-10-08T23:21:09.066Z,58.59
2022-10-08T23:23:36.346Z,58.50
2022-10-08T23:26:06.731Z,58.20
2022-10-08T23:28:35.206Z,58.90
2022-10-08T23:31:14.423Z,58.72
2022-10-08T23:33:43.698Z,58.83
2022-10-08T23:36:12.530Z,59.13
2022-10-08T23:38:39.135Z,58.78
2022-10-08T23:41:07.649Z,59.17
2022-10-08T23:43:36.145Z,59.26
2022-10-08T23:46:03.421Z,59.28
2022-10-08T23:48:30.010Z,58.91
2022-10-08T23:50:57.065Z,59.11
2022-10-08T23:53:23.901Z,58.83
2022-10-08T23:55:50.963Z,59.09
2022-10-08T23:58:17.980Z,59.41
